TimeCDT,TemperatureF,Dew PointF,Humidity,Sea Level PressureIn,VisibilityMPH,Wind Direction,Wind SpeedMPH,Gust SpeedMPH,PrecipitationIn,Events,Conditions,WindDirDegrees,DateUTC
12:56 AM,70.0,68.0,93,30.13,7.0,SE,3.5,-,N/A,,Scattered Clouds,140,2012-10-14 05:56:00
1:56 AM,68.0,66.9,96,30.12,7.0,SE,4.6,-,N/A,,Scattered Clouds,130,2012-10-14 06:56:00
2:56 AM,69.1,66.9,93,30.10,7.0,ESE,5.8,-,N/A,,Scattered Clouds,120,2012-10-14 07:56:00
3:56 AM,68.0,66.0,93,30.09,9.0,SE,4.6,-,N/A,,Scattered Clouds,130,2012-10-14 08:56:00
4:56 AM,68.0,64.9,90,30.08,10.0,Calm,Calm,-,N/A,,Partly Cloudy,0,2012-10-14 09:56:00
5:56 AM,69.1,66.0,90,30.09,7.0,ESE,5.8,-,N/A,,Scattered Clouds,120,2012-10-14 10:56:00
6:56 AM,66.9,64.9,93,30.10,7.0,ENE,3.5,-,N/A,,Mostly Cloudy,60,2012-10-14 11:56:00
7:56 AM,70.0,68.0,93,30.11,8.0,Calm,Calm,-,N/A,,Overcast,0,2012-10-14 12:56:00
8:56 AM,72.0,68.0,87,30.14,7.0,NE,3.5,-,N/A,,Mostly Cloudy,40,2012-10-14 13:56:00
9:56 AM,78.1,70.0,76,30.16,10.0,Calm,Calm,-,N/A,,Mostly Cloudy,0,2012-10-14 14:56:00
10:56 AM,82.0,68.0,62,30.15,10.0,Variable,5.8,-,N/A,,Mostly Cloudy,0,2012-10-14 15:56:00
11:05 AM,82.4,68.0,62,30.16,10.0,WSW,6.9,-,N/A,,Mostly Cloudy,240,2012-10-14 16:05:00
11:56 AM,82.9,68.0,60,30.14,10.0,Variable,4.6,-,N/A,,Mostly Cloudy,0,2012-10-14 16:56:00
12:56 PM,84.9,66.0,53,30.11,10.0,SSW,8.1,-,N/A,,Mostly Cloudy,210,2012-10-14 17:56:00
1:56 PM,84.9,66.0,53,30.07,10.0,Calm,Calm,-,N/A,,Mostly Cloudy,0,2012-10-14 18:56:00
2:56 PM,84.9,64.9,51,30.04,10.0,South,3.5,-,N/A,,Mostly Cloudy,190,2012-10-14 19:56:00
3:56 PM,84.9,64.0,49,30.02,10.0,Variable,3.5,-,N/A,,Mostly Cloudy,0,2012-10-14 20:56:00
4:56 PM,82.0,66.0,58,30.00,10.0,South,11.5,-,N/A,,Mostly Cloudy,170,2012-10-14 21:56:00
5:56 PM,79.0,66.9,66,30.01,10.0,South,8.1,-,N/A,,Mostly Cloudy,180,2012-10-14 22:56:00
6:56 PM,75.9,66.9,74,30.01,10.0,South,6.9,-,N/A,,Mostly Cloudy,170,2012-10-14 23:56:00
7:56 PM,73.9,66.9,79,30.03,10.0,South,4.6,-,N/A,,Mostly Cloudy,180,2012-10-15 00:56:00
8:56 PM,71.1,66.9,87,30.04,10.0,Calm,Calm,-,N/A,,Partly Cloudy,0,2012-10-15 01:56:00
9:56 PM,70.0,66.0,87,30.03,8.0,South,4.6,-,N/A,,Scattered Clouds,170,2012-10-15 02:56:00
10:56 PM,70.0,68.0,93,30.02,10.0,SSE,3.5,-,N/A,,Partly Cloudy,160,2012-10-15 03:56:00
11:56 PM,72.0,69.1,91,30.00,10.0,South,6.9,-,N/A,,Partly Cloudy,180,2012-10-15 04:56:00